Time;durP1;ratioP1;P1;durP2;ratioP2;P2;SDS_P1;SDS_P2;PMS_P1;PMS_P2;Temp;Humidity;BMP_temperature;BMP_pressure;BME280_temperature;BME280_humidity;BME280_pressure;Samples;Min_cycle;Max_cycle;Signal;HPM_P1;HPM_P2
2023/12/19 00:01:22;;;;;;;0.00;0.00;;;;;;;11.70;100.00;101100.44;4916471;29;20861;-79
2023/12/19 00:10:22;;;;;;;0.00;0.00;;;;;;;11.54;100.00;101095.88;4934728;29;20034;-79
2023/12/19 00:12:47;;;;;;;0.00;0.00;;;;;;;11.57;100.00;101110.97;4906254;29;20129;-83
2023/12/19 00:15:26;;;;;;;;;;;;;;;;;;;;;
2023/12/19 00:18:06;;;;;;;0.00;0.00;;;;;;;11.77;100.00;101115.84;4908413;29;20036;-75
2023/12/19 00:20:48;;;;;;;0.00;0.00;;;;;;;11.66;100.00;101093.00;4929225;29;20032;-75
2023/12/19 00:23:16;;;;;;;0.00;0.00;;;;;;;11.64;100.00;101087.78;4929967;29;20038;-75
2023/12/19 00:25:51;;;;;;;0.00;0.00;;;;;;;11.96;100.00;101136.38;4919028;29;20035;-75
2023/12/19 00:31:55;;;;;;;0.10;0.10;;;;;;;11.59;100.00;101060.31;4928336;29;20042;-77
2023/12/19 00:37:58;;;;;;;;;;;;;;;;;;;;;
2023/12/19 00:40:26;;;;;;;0.00;0.00;;;;;;;11.62;100.00;101054.34;4917313;29;20046;-76
2023/12/19 00:42:55;;;;;;;0.00;0.00;;;;;;;11.76;100.00;101075.84;4929681;29;20059;-77
2023/12/19 00:49:57;;;;;;;0.00;0.00;;;;;;;11.54;100.00;101041.09;4864967;29;20533;-78
2023/12/19 00:52:36;;;;;;;0.00;0.00;;;;;;;11.88;100.00;101109.38;4870673;29;20068;-78
2023/12/19 00:55:04;;;;;;;0.00;0.00;;;;;;;11.50;100.00;101045.44;4890379;29;20118;-77
2023/12/19 00:58:08;;;;;;;;;;;;;;;;;;;;;
2023/12/19 01:00:34;;;;;;;0.00;0.00;;;;;;;11.51;100.00;101060.78;4909913;29;20438;-78
2023/12/19 01:03:00;;;;;;;0.00;0.00;;;;;;;11.60;100.00;101092.09;4892804;29;20125;-76
2023/12/19 01:05:26;;;;;;;0.00;0.00;;;;;;;11.22;100.00;101039.09;4896469;29;20035;-78
2023/12/19 01:07:51;;;;;;;0.00;0.00;;;;;;;11.13;100.00;101026.94;4892544;29;20044;-76
2023/12/19 01:10:19;;;;;;;0.00;0.00;;;;;;;11.07;100.00;101027.94;4892946;29;20042;-76
2023/12/19 01:12:46;;;;;;;0.00;0.00;;;;;;;11.15;100.00;101050.22;4891060;29;20040;-77
2023/12/19 01:15:11;;;;;;;0.00;0.00;;;;;;;11.20;100.00;101065.91;4911338;29;20367;-76
2023/12/19 01:17:37;;;;;;;0.00;0.00;;;;;;;11.21;100.00;101064.78;4901271;29;20398;-78
2023/12/19 01:20:02;;;;;;;0.00;0.00;;;;;;;11.22;100.00;101069.19;4904697;29;20565;-76
2023/12/19 01:22:28;;;;;;;0.00;0.00;;;;;;;11.11;100.00;101048.25;4894744;29;20383;-77
2023/12/19 01:24:53;;;;;;;0.00;0.00;;;;;;;11.13;100.00;101051.56;4879900;29;20071;-77
2023/12/19 01:27:21;;;;;;;0.00;0.00;;;;;;;11.10;100.00;101052.91;4875380;29;20032;-77
2023/12/19 01:29:49;;;;;;;0.00;0.00;;;;;;;11.14;100.00;101039.53;4894913;29;20032;-77
2023/12/19 01:32:15;;;;;;;0.00;0.00;;;;;;;11.11;100.00;101032.66;4896283;29;20062;-78
2023/12/19 01:34:40;;;;;;;0.00;0.00;;;;;;;11.00;100.00;101014.47;4879435;29;20762;-77
2023/12/19 01:37:17;;;;;;;0.00;0.00;;;;;;;10.99;100.00;101021.00;4881672;29;20087;-77
2023/12/19 01:39:50;;;;;;;0.00;0.00;;;;;;;10.92;100.00;101004.78;4894581;29;20036;-79
2023/12/19 01:42:24;;;;;;;0.00;0.00;;;;;;;11.02;100.00;101006.81;4911209;29;20036;-79
2023/12/19 01:45:13;;;;;;;0.00;0.00;;;;;;;10.97;100.00;101006.75;4890969;29;20506;-78
2023/12/19 01:47:57;;;;;;;0.00;0.00;;;;;;;11.10;100.00;101035.66;4879849;29;20487;-82
2023/12/19 01:51:22;;;;;;;;;;;;;;;;;;;;;
2023/12/19 01:54:21;;;;;;;0.00;0.00;;;;;;;11.08;100.00;101033.19;4931851;29;20038;-82
2023/12/19 01:57:45;;;;;;;0.00;0.00;;;;;;;10.81;100.00;100995.59;4888270;29;20136;-80
2023/12/19 02:01:21;;;;;;;0.00;0.00;;;;;;;11.03;100.00;101007.66;4896800;29;20619;-84
2023/12/19 02:07:31;;;;;;;0.00;0.00;;;;;;;10.90;100.00;100993.25;4914824;29;20040;-82
2023/12/19 02:10:30;;;;;;;;;;;;;;;;;;;;;
2023/12/19 02:13:08;;;;;;;0.00;0.00;;;;;;;10.86;100.00;100986.63;4907006;29;20032;-80
2023/12/19 02:15:34;;;;;;;0.00;0.00;;;;;;;11.01;100.00;101002.44;4909172;29;20166;-80
2023/12/19 02:18:16;;;;;;;0.00;0.00;;;;;;;11.06;100.00;101009.88;4911585;29;20036;-81
2023/12/19 02:20:41;;;;;;;0.00;0.00;;;;;;;11.03;100.00;100991.22;4911375;29;20051;-81
2023/12/19 02:23:08;;;;;;;0.00;0.00;;;;;;;11.07;100.00;101004.16;4893717;29;20043;-79
2023/12/19 02:25:46;;;;;;;;;;;;;;;;;;;;;
2023/12/19 02:28:15;;;;;;;0.00;0.00;;;;;;;10.88;100.00;100967.22;4924110;29;20036;-80
2023/12/19 02:30:41;;;;;;;0.00;0.00;;;;;;;11.21;100.00;101015.53;4908041;29;20035;-78
2023/12/19 02:33:14;;;;;;;0.00;0.00;;;;;;;11.10;100.00;100997.34;4924039;29;20051;-79
2023/12/19 02:36:10;;;;;;;0.00;0.00;;;;;;;10.98;100.00;100965.47;4924430;29;20027;-80
2023/12/19 02:38:35;;;;;;;0.00;0.00;;;;;;;11.29;100.00;101006.88;4934703;29;20036;-79
2023/12/19 02:41:04;;;;;;;0.00;0.00;;;;;;;11.28;100.00;101005.19;4917173;29;20082;-78
2023/12/19 02:43:37;;;;;;;0.00;0.00;;;;;;;11.28;100.00;100988.78;4900667;29;20028;-79
2023/12/19 02:46:07;;;;;;;0.00;0.00;;;;;;;11.21;100.00;100949.00;4928234;29;20036;-77
2023/12/19 02:48:32;;;;;;;0.00;0.00;;;;;;;11.29;100.00;100949.38;4917900;29;20030;-78
2023/12/19 02:50:58;;;;;;;0.00;0.00;;;;;;;11.50;100.00;100982.44;4900592;29;20490;-77
2023/12/19 02:53:28;;;;;;;0.00;0.00;;;;;;;11.42;100.00;100966.47;4905912;29;20478;-78
2023/12/19 02:55:54;;;;;;;0.00;0.00;;;;;;;11.38;100.00;100949.72;4932684;29;20034;-81
2023/12/19 02:58:19;;;;;;;0.00;0.00;;;;;;;11.50;100.00;100963.25;4907832;29;20039;-80
2023/12/19 03:08:20;;;;;;;;;;;;;;;;;;;;;
2023/12/19 03:10:46;;;;;;;0.00;0.00;;;;;;;11.59;100.00;100949.91;4841620;29;20046;-81
2023/12/19 03:13:14;;;;;;;0.00;0.00;;;;;;;11.57;100.00;100958.41;4904618;29;20112;-84
2023/12/19 03:15:39;;;;;;;0.00;0.00;;;;;;;11.45;100.00;100935.84;4901330;29;20040;-80
2023/12/19 03:18:05;;;;;;;0.00;0.00;;;;;;;11.35;100.00;100915.47;4922923;29;20036;-81
2023/12/19 03:21:14;;;;;;;;;;;;;;;;;;;;;
2023/12/19 03:23:32;;;;;;;0.00;0.00;;;;;;;11.22;100.00;100894.00;4932648;29;20039;-85
2023/12/19 03:26:02;;;;;;;0.00;0.00;;;;;;;11.30;100.00;100912.69;4920272;29;20020;-80
2023/12/19 03:28:41;;;;;;;;;;;;;;;;;;;;;
2023/12/19 03:31:06;;;;;;;0.00;0.00;;;;;;;11.37;100.00;100912.47;4930043;29;20969;-79
2023/12/19 03:33:32;;;;;;;0.00;0.00;;;;;;;11.52;100.00;100933.69;4920181;29;20106;-80
2023/12/19 03:36:15;;;;;;;0.00;0.00;;;;;;;11.66;100.00;100932.19;4908152;29;20039;-79
2023/12/19 03:38:51;;;;;;;;;;;;;;;;;;;;;
2023/12/19 03:41:50;;;;;;;;;;;;;;;;;;;;;
2023/12/19 03:44:16;;;;;;;0.00;0.00;;;;;;;11.53;100.00;100894.25;4902339;29;20114;-77
2023/12/19 03:46:42;;;;;;;0.00;0.00;;;;;;;11.53;100.00;100905.22;4924033;29;20028;-77
2023/12/19 03:49:15;;;;;;;0.00;0.00;;;;;;;11.58;100.00;100905.28;4901854;29;20391;-79
2023/12/19 03:51:45;;;;;;;0.00;0.00;;;;;;;11.53;100.00;100897.00;4908627;29;20058;-80
2023/12/19 03:54:10;;;;;;;0.00;0.00;;;;;;;11.57;100.00;100898.13;4914506;29;20107;-79
2023/12/19 03:56:36;;;;;;;0.00;0.00;;;;;;;11.71;100.00;100917.72;4912962;29;20020;-76
2023/12/19 03:59:01;;;;;;;0.00;0.00;;;;;;;11.58;100.00;100886.09;4906030;29;20028;-78
2023/12/19 04:01:30;;;;;;;0.00;0.00;;;;;;;11.60;100.00;100892.13;4905417;29;20036;-78
2023/12/19 04:04:07;;;;;;;0.00;0.00;;;;;;;11.61;100.00;100890.22;4909963;29;20047;-77
2023/12/19 04:06:32;;;;;;;0.00;0.00;;;;;;;11.58;100.00;100888.84;4920571;29;20064;-77
2023/12/19 04:09:07;;;;;;;0.00;0.00;;;;;;;11.38;100.00;100861.28;4915145;29;20367;-78
2023/12/19 04:11:50;;;;;;;0.00;0.00;;;;;;;11.41;100.00;100860.78;4901340;29;20135;-78
2023/12/19 04:14:26;;;;;;;0.00;0.00;;;;;;;11.20;100.00;100827.75;4916508;29;20031;-76
2023/12/19 04:16:57;;;;;;;0.00;0.00;;;;;;;11.28;100.00;100851.06;4909900;29;20426;-77
2023/12/19 04:19:26;;;;;;;0.00;0.00;;;;;;;11.34;100.00;100860.97;4918102;29;20030;-76
2023/12/19 04:21:51;;;;;;;0.00;0.00;;;;;;;11.25;100.00;100846.94;4913663;29;20036;-77
2023/12/19 04:24:32;;;;;;;0.00;0.00;;;;;;;11.19;100.00;100837.03;4896793;29;20075;-77
2023/12/19 04:27:05;;;;;;;0.00;0.00;;;;;;;11.16;100.00;100843.84;4925792;29;20024;-78
2023/12/19 04:29:30;;;;;;;0.00;0.00;;;;;;;11.13;100.00;100838.06;4935856;29;20110;-78
2023/12/19 04:32:00;;;;;;;0.05;0.05;;;;;;;11.31;100.00;100850.53;4897952;29;20034;-76
2023/12/19 04:34:26;;;;;;;0.00;0.00;;;;;;;11.20;100.00;100830.47;4898201;29;20060;-79
2023/12/19 04:36:51;;;;;;;0.00;0.00;;;;;;;11.44;100.00;100866.53;4926844;29;20027;-78
2023/12/19 04:39:17;;;;;;;0.00;0.00;;;;;;;11.35;100.00;100852.50;4913581;29;20537;-78
2023/12/19 04:41:44;;;;;;;0.00;0.00;;;;;;;11.28;100.00;100835.47;4885686;29;20040;-76
2023/12/19 04:44:12;;;;;;;0.00;0.00;;;;;;;11.40;100.00;100853.63;4894108;29;20648;-77
2023/12/19 04:46:41;;;;;;;0.00;0.00;;;;;;;11.37;100.00;100837.72;4905441;29;20039;-78
2023/12/19 04:49:06;;;;;;;0.05;0.05;;;;;;;11.35;100.00;100835.25;4886027;29;20062;-77
2023/12/19 04:51:34;;;;;;;0.00;0.00;;;;;;;11.38;100.00;100839.38;4921659;29;20055;-77
2023/12/19 04:54:02;;;;;;;0.00;0.00;;;;;;;11.24;100.00;100814.34;4915704;29;20039;-77
2023/12/19 04:56:35;;;;;;;0.00;0.00;;;;;;;11.26;100.00;100820.41;4903715;29;20027;-79
2023/12/19 04:59:10;;;;;;;0.00;0.00;;;;;;;11.15;100.00;100803.03;4887500;29;20478;-77
2023/12/19 05:01:40;;;;;;;0.00;0.00;;;;;;;11.32;100.00;100822.09;4922053;29;20478;-80
2023/12/19 05:04:38;;;;;;;0.00;0.00;;;;;;;11.46;100.00;100836.16;4909229;29;20043;-78
2023/12/19 05:07:03;;;;;;;0.00;0.00;;;;;;;11.09;100.00;100772.06;4914567;29;20050;-78
2023/12/19 05:09:29;;;;;;;0.00;0.00;;;;;;;11.09;100.00;100765.78;4896558;29;20023;-78
2023/12/19 05:12:17;;;;;;;0.00;0.00;;;;;;;11.34;100.00;100804.28;4928316;29;20028;-79
2023/12/19 05:18:37;;;;;;;;;;;;;;;;;;;;;
2023/12/19 05:21:06;;;;;;;0.00;0.00;;;;;;;11.25;100.00;100780.41;4925918;29;20024;-76
2023/12/19 05:27:39;;;;;;;0.00;0.00;;;;;;;11.43;100.00;100798.34;4919200;29;20107;-76
2023/12/19 05:31:01;;;;;;;;;;;;;;;;;;;;;
2023/12/19 05:37:39;;;;;;;0.00;0.00;;;;;;;11.24;100.00;100757.66;4856985;29;20438;-77
2023/12/19 05:40:48;;;;;;;;;;;;;;;;;;;;;
2023/12/19 06:00:48;;;;;;;0.00;0.00;;;;;;;11.22;100.00;100727.00;4762238;29;20564;-78
2023/12/19 06:03:13;;;;;;;0.00;0.00;;;;;;;11.23;100.00;100731.41;4762934;30;20051;-76
2023/12/19 06:05:41;;;;;;;0.00;0.00;;;;;;;11.41;100.00;100756.72;4770167;29;20046;-77
2023/12/19 06:08:24;;;;;;;0.00;0.00;;;;;;;11.30;100.00;100745.69;4829130;29;20153;-77
2023/12/19 06:10:51;;;;;;;0.00;0.00;;;;;;;11.25;100.00;100731.94;4885026;29;20043;-76
2023/12/19 06:13:17;;;;;;;0.00;0.00;;;;;;;11.41;100.00;100751.25;4910136;29;20055;-76
2023/12/19 06:15:45;;;;;;;0.00;0.00;;;;;;;11.39;100.00;100753.41;4913558;29;21621;-77
2023/12/19 06:18:16;;;;;;;0.00;0.00;;;;;;;11.37;100.00;100744.63;4898688;29;20070;-78
2023/12/19 06:20:43;;;;;;;0.00;0.00;;;;;;;11.31;100.00;100736.38;4916470;29;20030;-76
2023/12/19 06:23:12;;;;;;;0.00;0.00;;;;;;;11.43;100.00;100755.34;4931002;29;20066;-77
2023/12/19 06:26:01;;;;;;;0.00;0.00;;;;;;;11.25;100.00;100715.53;4914547;29;21305;-77
2023/12/19 06:28:26;;;;;;;0.00;0.00;;;;;;;11.41;100.00;100751.25;4922851;29;20078;-77
2023/12/19 06:30:52;;;;;;;0.00;0.00;;;;;;;11.31;100.00;100733.63;4900061;29;20035;-77
2023/12/19 06:33:20;;;;;;;0.00;0.00;;;;;;;11.41;100.00;100752.06;4913794;29;20039;-77
2023/12/19 06:35:51;;;;;;;0.00;0.00;;;;;;;11.42;100.00;100747.38;4903032;29;20024;-76
2023/12/19 06:38:17;;;;;;;0.00;0.00;;;;;;;11.35;100.00;100732.03;4916783;29;20051;-77
2023/12/19 06:40:45;;;;;;;0.00;0.00;;;;;;;11.34;100.00;100729.53;4913837;29;20036;-76
2023/12/19 06:43:13;;;;;;;0.00;0.00;;;;;;;11.21;100.00;100708.94;4917172;29;20039;-77
2023/12/19 06:45:41;;;;;;;0.00;0.00;;;;;;;11.15;100.00;100693.56;4897415;29;20126;-76
2023/12/19 06:48:07;;;;;;;0.00;0.00;;;;;;;11.34;100.00;100727.63;4929970;29;20028;-77
2023/12/19 06:50:32;;;;;;;0.00;0.00;;;;;;;11.39;100.00;100720.53;4889654;29;20042;-76
2023/12/19 06:53:00;;;;;;;0.00;0.00;;;;;;;11.34;100.00;100702.97;4896297;29;20761;-76
2023/12/19 06:55:33;;;;;;;0.00;0.00;;;;;;;11.39;100.00;100706.84;4928724;29;20038;-76
2023/12/19 06:57:58;;;;;;;0.00;0.00;;;;;;;11.46;100.00;100721.13;4933093;29;20035;-77
2023/12/19 07:00:24;;;;;;;0.00;0.00;;;;;;;11.44;100.00;100728.81;4930394;29;21742;-76
2023/12/19 07:02:49;;;;;;;0.00;0.00;;;;;;;11.49;100.00;100732.41;4912173;29;20701;-76
2023/12/19 07:05:15;;;;;;;0.00;0.00;;;;;;;11.49;100.00;100726.06;4897464;29;20032;-76
2023/12/19 07:07:40;;;;;;;0.00;0.00;;;;;;;11.43;100.00;100710.72;4880390;29;20099;-76
2023/12/19 07:10:17;;;;;;;0.10;0.10;;;;;;;11.43;100.00;100694.28;4935967;29;20050;-79
2023/12/19 07:12:45;;;;;;;0.00;0.00;;;;;;;11.42;100.00;100692.63;4919622;29;20031;-77
2023/12/19 07:15:11;;;;;;;0.00;0.00;;;;;;;11.59;100.00;100715.19;4910885;29;20698;-78
2023/12/19 07:17:39;;;;;;;0.00;0.00;;;;;;;11.50;100.00;100698.41;4915552;29;20409;-78
2023/12/19 07:20:07;;;;;;;0.00;0.00;;;;;;;11.55;100.00;100705.88;4913770;29;20128;-78
2023/12/19 07:22:35;;;;;;;0.00;0.00;;;;;;;11.42;100.00;100684.41;4928220;29;20439;-80
2023/12/19 07:25:00;;;;;;;0.00;0.00;;;;;;;11.52;100.00;100693.53;4914670;29;20061;-79
2023/12/19 07:27:26;;;;;;;0.00;0.00;;;;;;;11.44;100.00;100674.03;4897876;29;20032;-79
2023/12/19 07:29:54;;;;;;;0.00;0.00;;;;;;;11.49;100.00;100685.00;4930978;29;20066;-78
2023/12/19 07:32:27;;;;;;;0.00;0.00;;;;;;;11.62;100.00;100703.72;4917860;29;20055;-78
2023/12/19 07:34:52;;;;;;;0.00;0.00;;;;;;;11.64;100.00;100696.03;4884146;29;20036;-78
2023/12/19 07:37:23;;;;;;;0.00;0.00;;;;;;;11.65;100.00;100692.22;4914706;29;20462;-82
2023/12/19 07:39:48;;;;;;;0.00;0.00;;;;;;;11.75;100.00;100705.13;4897311;29;20406;-80
2023/12/19 07:42:14;;;;;;;0.00;0.00;;;;;;;11.72;100.00;100685.66;4897933;29;20036;-80
2023/12/19 08:00:03;;;;;;;0.00;0.00;;;;;;;11.36;100.00;100634.28;4867365;29;20081;-78
2023/12/19 08:03:42;;;;;;;0.00;0.00;;;;;;;11.23;100.00;100619.16;4836838;29;20048;-80
2023/12/19 10:53:07;;;;;;;0.00;0.00;;;;;;;10.23;100.00;100738.09;4871714;29;20052;-76
2023/12/19 10:55:41;;;;;;;0.00;0.00;;;;;;;10.18;100.00;100718.94;4872734;29;20495;-77
2023/12/19 10:58:10;;;;;;;0.00;0.00;;;;;;;10.11;100.00;100712.84;4870496;29;20041;-78
2023/12/19 11:00:38;;;;;;;0.00;0.00;;;;;;;10.19;100.00;100712.38;4862015;29;20070;-79
2023/12/19 11:03:35;;;;;;;0.00;0.00;;;;;;;10.39;100.00;100735.56;4886083;29;20037;-78
2023/12/19 11:06:09;;;;;;;0.00;0.00;;;;;;;10.22;100.00;100698.22;4889419;29;20105;-78
2023/12/19 11:08:58;;;;;;;;;;;;;;;;;;;;;
2023/12/19 11:11:53;;;;;;;0.00;0.00;;;;;;;10.45;100.00;100713.50;4871145;29;20506;-79
2023/12/19 11:14:23;;;;;;;0.00;0.00;;;;;;;10.21;100.00;100663.75;4877858;29;20043;-78
2023/12/19 11:17:58;;;;;;;0.00;0.00;;;;;;;10.25;100.00;100670.34;4875610;29;20030;-78
2023/12/19 11:20:36;;;;;;;0.00;0.00;;;;;;;10.17;100.00;100640.75;4861262;29;20032;-81
2023/12/19 11:23:50;;;;;;;0.00;0.00;;;;;;;10.51;100.00;100695.22;4862766;29;20029;-79
2023/12/19 11:26:34;;;;;;;0.00;0.00;;;;;;;10.25;100.00;100637.56;4866064;29;20060;-77
2023/12/19 11:28:59;;;;;;;0.00;0.00;;;;;;;10.42;100.00;100658.50;4857942;29;20075;-77
2023/12/19 11:31:29;;;;;;;0.00;0.00;;;;;;;10.31;100.00;100617.38;4876629;29;21266;-77
2023/12/19 11:33:56;;;;;;;0.00;0.00;;;;;;;10.61;100.00;100635.16;4859698;29;21502;-76
2023/12/19 11:36:21;;;;;;;0.00;0.00;;;;;;;10.71;100.00;100639.06;4864668;29;20029;-77
2023/12/19 11:39:09;;;;;;;0.00;0.00;;;;;;;10.69;100.00;100641.22;4871104;29;20044;-76
2023/12/19 11:41:42;;;;;;;0.00;0.00;;;;;;;10.67;100.00;100646.16;4863108;29;20037;-77
2023/12/19 11:44:34;;;;;;;0.08;0.08;;;;;;;10.57;100.00;100661.41;4879498;29;20063;-77
2023/12/19 11:47:16;;;;;;;0.00;0.00;;;;;;;10.67;100.00;100681.69;4869404;29;20077;-75
2023/12/19 11:49:44;;;;;;;0.00;0.00;;;;;;;10.63;100.00;100681.38;4876487;29;20074;-77
2023/12/19 11:52:32;;;;;;;0.00;0.00;;;;;;;10.71;100.00;100704.72;4864301;29;20143;-78
2023/12/19 11:55:03;;;;;;;0.00;0.00;;;;;;;10.46;100.00;100659.66;4867447;29;20085;-76
2023/12/19 11:57:28;;;;;;;0.00;0.00;;;;;;;10.40;100.00;100650.56;4878210;29;20055;-75
2023/12/19 11:59:57;;;;;;;0.10;0.10;;;;;;;10.60;100.00;100677.28;4859742;29;20025;-80
2023/12/19 12:02:45;;;;;;;0.00;0.00;;;;;;;10.72;100.00;100700.88;4876002;29;20429;-75
2023/12/19 12:05:13;;;;;;;0.00;0.00;;;;;;;10.65;100.00;100690.16;4870680;29;20033;-77
2023/12/19 12:08:11;;;;;;;0.00;0.00;;;;;;;10.78;100.00;100710.81;4870969;29;20100;-75
2023/12/19 12:10:37;;;;;;;0.00;0.00;;;;;;;10.61;100.00;100667.16;4867419;29;20572;-77
2023/12/19 12:13:05;;;;;;;0.00;0.00;;;;;;;10.54;100.00;100656.44;4859934;29;20029;-76
2023/12/19 12:15:38;;;;;;;0.00;0.00;;;;;;;10.71;100.00;100677.38;4865227;29;20041;-76
2023/12/19 12:18:16;;;;;;;;;;;;;;;;;;;;;
2023/12/19 12:20:41;;;;;;;0.00;0.00;;;;;;;10.67;100.00;100681.69;4866793;29;20040;-78
2023/12/19 12:23:07;;;;;;;0.00;0.00;;;;;;;10.75;100.00;100700.38;4868781;29;20025;-77
2023/12/19 12:25:32;;;;;;;0.00;0.00;;;;;;;10.55;100.00;100671.75;4867570;29;20109;-77
2023/12/19 12:28:08;;;;;;;0.00;0.00;;;;;;;10.77;100.00;100698.19;4879712;29;20052;-78
2023/12/19 12:30:34;;;;;;;0.00;0.00;;;;;;;10.86;100.00;100702.09;4870877;29;20075;-76
2023/12/19 12:33:08;;;;;;;0.00;0.00;;;;;;;10.69;100.00;100669.44;4852048;29;20362;-77
2023/12/19 12:35:35;;;;;;;0.00;0.00;;;;;;;10.85;100.00;100700.47;4880850;29;20096;-76
2023/12/19 12:38:10;;;;;;;0.00;0.00;;;;;;;10.89;100.00;100698.84;4862924;29;20552;-75
2023/12/19 12:40:36;;;;;;;0.00;0.00;;;;;;;10.70;100.00;100667.50;4858041;29;20040;-77
2023/12/19 12:43:54;;;;;;;0.00;0.00;;;;;;;10.99;100.00;100711.78;4875312;29;20026;-77
2023/12/19 12:46:21;;;;;;;0.10;0.10;;;;;;;10.90;100.00;100692.28;4873432;29;20029;-79
2023/12/19 12:48:56;;;;;;;0.00;0.00;;;;;;;11.04;100.00;100711.00;4872713;29;20180;-79
2023/12/19 13:47:32;;;;;;;0.00;0.00;;;;;;;9.95;100.00;100726.31;4858860;29;20033;-76
2023/12/19 13:50:24;;;;;;;;;;;;;;;;;;;;;
2023/12/19 13:52:52;;;;;;;0.05;0.05;;;;;;;10.02;100.00;100708.91;4867831;29;20506;-78
2023/12/19 13:55:18;;;;;;;0.00;0.00;;;;;;;10.07;100.00;100719.88;4871556;29;20512;-76
2023/12/19 13:57:43;;;;;;;0.00;0.00;;;;;;;10.17;100.00;100728.19;4866849;29;20029;-76
2023/12/19 14:00:14;;;;;;;0.00;0.00;;;;;;;10.16;100.00;100710.13;4872868;29;20032;-75
2023/12/19 14:02:45;;;;;;;0.00;0.00;;;;;;;10.14;100.00;100704.13;4862606;29;20068;-76
2023/12/19 14:05:14;;;;;;;0.00;0.00;;;;;;;10.33;100.00;100742.06;4883920;29;20104;-75
2023/12/19 14:07:45;;;;;;;0.00;0.00;;;;;;;10.38;100.00;100750.31;4887677;29;20030;-76
2023/12/19 14:10:10;;;;;;;0.00;0.00;;;;;;;10.38;100.00;100750.31;4864265;29;20097;-75
2023/12/19 14:12:47;;;;;;;0.00;0.00;;;;;;;10.32;100.00;100741.19;4864265;29;20026;-76
2023/12/19 14:15:23;;;;;;;0.00;0.00;;;;;;;10.28;100.00;100734.63;4848433;29;20951;-76
2023/12/19 14:17:49;;;;;;;0.00;0.00;;;;;;;10.11;100.00;100718.31;4850400;29;20099;-77
2023/12/19 14:20:14;;;;;;;0.00;0.00;;;;;;;10.18;100.00;100724.41;4844912;29;20033;-77
2023/12/19 14:22:42;;;;;;;0.00;0.00;;;;;;;10.19;100.00;100728.78;4858429;29;20033;-76
2023/12/19 14:25:08;;;;;;;0.00;0.00;;;;;;;10.15;100.00;100724.91;4867597;29;20124;-76
2023/12/19 14:27:35;;;;;;;0.00;0.00;;;;;;;10.28;100.00;100734.63;4869720;29;20032;-76
2023/12/19 14:30:11;;;;;;;0.00;0.00;;;;;;;10.27;100.00;100744.72;4876464;29;20445;-75
2023/12/19 14:32:37;;;;;;;0.00;0.00;;;;;;;10.30;100.00;100760.59;4871511;29;20029;-76
2023/12/19 14:35:06;;;;;;;0.00;0.00;;;;;;;10.20;100.00;100744.09;4857892;29;20021;-76
2023/12/19 14:37:43;;;;;;;0.00;0.00;;;;;;;9.98;100.00;100714.03;4856151;29;20036;-75
2023/12/19 14:40:15;;;;;;;0.00;0.00;;;;;;;9.96;100.00;100738.06;4871626;29;20032;-76
2023/12/19 14:42:40;;;;;;;0.00;0.00;;;;;;;9.92;100.00;100765.06;4858536;29;20477;-75
2023/12/19 14:45:07;;;;;;;0.00;0.00;;;;;;;9.68;100.00;100741.78;4881609;29;20064;-77
2023/12/19 14:47:33;;;;;;;0.00;0.00;;;;;;;9.70;100.00;100758.75;4867630;29;20071;-76
2023/12/19 14:49:58;;;;;;;0.00;0.00;;;;;;;9.59;100.00;100761.34;4871329;29;20116;-77
2023/12/19 14:52:24;;;;;;;0.00;0.00;;;;;;;9.64;100.00;100767.94;4846431;29;20518;-76
2023/12/19 14:54:50;;;;;;;0.00;0.00;;;;;;;9.57;100.00;100774.41;4869288;29;20033;-76
2023/12/19 14:57:15;;;;;;;0.00;0.00;;;;;;;9.44;100.00;100770.13;4862386;29;20120;-76
2023/12/19 14:59:41;;;;;;;0.00;0.00;;;;;;;9.48;100.00;100792.31;4849843;29;20121;-75
2023/12/19 15:02:14;;;;;;;0.00;0.00;;;;;;;9.30;100.00;100770.72;4866161;29;20040;-77
2023/12/19 15:04:41;;;;;;;0.00;0.00;;;;;;;9.46;100.00;100799.91;4870812;29;20040;-76
2023/12/19 15:07:07;;;;;;;0.00;0.00;;;;;;;9.22;100.00;100778.25;4849525;29;20037;-76
2023/12/19 15:09:35;;;;;;;0.00;0.00;;;;;;;9.38;100.00;100813.97;4876728;29;20426;-76
2023/12/19 15:12:03;;;;;;;0.00;0.00;;;;;;;9.03;100.00;100763.22;4871963;29;20025;-76
2023/12/19 15:14:33;;;;;;;0.00;0.00;;;;;;;9.28;100.00;100813.81;4881052;29;20025;-76
2023/12/19 15:17:00;;;;;;;0.00;0.00;;;;;;;9.06;100.00;100785.34;4870161;29;20403;-77
2023/12/19 15:19:25;;;;;;;0.00;0.00;;;;;;;9.03;100.00;100796.75;4866567;29;20029;-76
2023/12/19 15:21:51;;;;;;;0.00;0.00;;;;;;;9.03;100.00;100791.31;4863594;29;20029;-75
2023/12/19 15:24:20;;;;;;;0.00;0.00;;;;;;;8.93;100.00;100788.41;4864903;29;20090;-77
2023/12/19 15:26:45;;;;;;;0.00;0.00;;;;;;;8.83;100.00;100791.75;4872805;29;20035;-76
2023/12/19 15:29:14;;;;;;;0.00;0.00;;;;;;;8.98;100.00;100814.94;4860505;29;20112;-78
2023/12/19 15:31:43;;;;;;;0.00;0.00;;;;;;;8.82;100.00;100790.13;4869669;29;20052;-75
2023/12/19 15:34:09;;;;;;;0.00;0.00;;;;;;;8.95;100.00;100832.63;4875545;29;20040;-76
2023/12/19 15:36:35;;;;;;;0.00;0.00;;;;;;;8.86;100.00;100859.47;4857157;29;20032;-77
2023/12/19 15:39:00;;;;;;;0.00;0.00;;;;;;;8.60;100.00;100827.31;4864647;29;20056;-76
2023/12/19 15:41:28;;;;;;;0.00;0.00;;;;;;;8.54;100.00;100834.56;4859307;29;20136;-75
2023/12/19 15:43:57;;;;;;;0.00;0.00;;;;;;;8.48;100.00;100833.63;4866295;29;20037;-76
2023/12/19 15:46:25;;;;;;;0.10;0.10;;;;;;;8.33;100.00;100833.31;4852086;29;20041;-76
2023/12/19 15:48:51;;;;;;;0.00;0.00;;;;;;;8.41;100.00;100871.09;4863228;29;20029;-76
2023/12/19 15:51:20;;;;;;;0.10;0.10;;;;;;;8.27;100.00;100869.69;4873734;29;20065;-76
2023/12/19 15:53:57;;;;;;;0.00;0.00;;;;;;;8.25;100.00;100899.91;4885531;29;20035;-76
2023/12/19 15:56:28;;;;;;;0.00;0.00;;;;;;;8.16;100.00;100895.88;4874677;29;20062;-78
2023/12/19 15:58:57;;;;;;;0.00;0.00;;;;;;;8.06;100.00;100896.50;4873470;29;20047;-77
2023/12/19 16:01:23;;;;;;;0.00;0.00;;;;;;;8.07;100.00;100911.75;4896773;29;20040;-78
2023/12/19 16:03:51;;;;;;;0.00;0.00;;;;;;;7.85;100.00;100890.56;4878937;29;20602;-78
2023/12/19 16:06:17;;;;;;;0.00;0.00;;;;;;;7.75;100.00;100901.22;4874421;29;20064;-77
2023/12/19 16:08:55;;;;;;;0.00;0.00;;;;;;;7.53;100.00;100892.78;4850650;29;20495;-76
2023/12/19 16:11:37;;;;;;;0.00;0.00;;;;;;;7.23;100.00;100866.47;4857783;29;20130;-79
2023/12/19 16:14:03;;;;;;;0.00;0.00;;;;;;;7.23;100.00;100871.06;4861632;29;20357;-77
2023/12/19 16:16:35;;;;;;;0.00;0.00;;;;;;;7.25;100.00;100877.13;4871188;29;20032;-76
2023/12/19 16:19:03;;;;;;;0.00;0.00;;;;;;;7.24;100.00;100883.63;4876339;29;20037;-76
2023/12/19 16:21:32;;;;;;;0.00;0.00;;;;;;;7.45;100.00;100907.56;4884787;29;20384;-76
2023/12/19 16:23:57;;;;;;;0.00;0.00;;;;;;;7.28;100.00;100901.94;4865133;29;20048;-77
2023/12/19 16:26:23;;;;;;;0.00;0.00;;;;;;;7.29;100.00;100913.69;4847088;29;20033;-76
2023/12/19 16:28:56;;;;;;;0.00;0.00;;;;;;;7.14;100.00;100901.34;4874364;29;20036;-76
2023/12/19 16:31:29;;;;;;;0.00;0.00;;;;;;;7.12;100.00;100898.00;4863165;29;20115;-76
2023/12/19 16:34:12;;;;;;;;;;;;;;;;;;;;;
2023/12/19 16:36:41;;;;;;;0.10;0.10;;;;;;;7.25;100.00;100929.63;4867070;29;21174;-77
2023/12/19 16:39:22;;;;;;;0.00;0.00;;;;;;;7.27;100.00;100937.56;4858168;29;20029;-78
2023/12/19 16:41:59;;;;;;;0.00;0.00;;;;;;;7.14;100.00;100919.53;4850826;29;20040;-77
2023/12/19 16:44:34;;;;;;;0.00;0.00;;;;;;;6.83;100.00;100888.78;4871916;29;20028;-76
2023/12/19 16:47:09;;;;;;;0.00;0.00;;;;;;;7.08;100.00;100951.22;4863364;29;20023;-76
2023/12/19 16:49:40;;;;;;;0.00;0.00;;;;;;;6.87;100.00;100932.66;4858578;29;20028;-77
2023/12/19 16:52:05;;;;;;;0.00;0.00;;;;;;;6.90;100.00;100956.69;4873249;29;20072;-76
2023/12/19 16:54:31;;;;;;;0.00;0.00;;;;;;;6.54;100.00;100933.91;4860621;29;20113;-77
2023/12/19 16:57:01;;;;;;;0.00;0.00;;;;;;;6.44;100.00;100951.56;4861969;29;20469;-77
2023/12/19 16:59:27;;;;;;;0.00;0.00;;;;;;;6.25;100.00;100941.72;4874977;29;20571;-77
2023/12/19 17:01:57;;;;;;;0.00;0.00;;;;;;;6.23;100.00;100949.28;4870509;29;20481;-77
2023/12/19 17:04:23;;;;;;;0.00;0.00;;;;;;;6.16;100.00;100970.22;4864573;29;20034;-77